NCAR-RAP Real-Time Weather Data

Output produced by METARs form (20 February 2019  18:42 UTC)
found at http://weather.rap.ucar.edu/surface/
 
RODN 201756Z AUTO 00000KT 10SM SCT006 SCT027 BKN055 22/21 A3010 RMK AO2 DZE1657RAB19E40DZB40E41 SLP199 P0002 60003 T02170207 10219 20206 55009 $
RODN 201751Z AUTO 26003KT 10SM SCT006 SCT027 BKN050 22/21 A3010 RMK AO2 DZE1657RAB19E40DZB40E41 SLP199 $
RODN 201741Z AUTO 00000KT 7SM BKN006 22/21 A3010 RMK AO2 DZE1657RAB19E40DZB40E41 SLP199 $
RODN 201739Z AUTO 21003KT 6SM -RA BR BKN006 22/21 A3010 RMK AO2 DZE1657RAB19 SLP199 $
RODN 201729Z AUTO 08007KT 1 5/8SM -RA BR BKN006 BKN017 22/21 A3010 RMK AO2 VIS 1 5/8V8 DZE1657RAB19 CIG 006V023 SLP199 $
RODN 201719Z AUTO 09006KT 9SM -RA SCT007 SCT017 BKN023 22/21 A3009 RMK AO2 DZE1657RAB19 BKN V SCT CIG 017 RWY05 SLP195 $
RODN 201657Z AUTO 06008KT 6SM BR FEW024 SCT049 21/20 A3010 RMK AO2 DZE57 SLP199 $
RODN 201656Z AUTO 05008KT 5SM -DZ BR FEW024 SCT049 21/20 A3010 RMK AO2 DZB45 SLP199 P0000 T02100203 $
RODN 201645Z AUTO 05005KT 5SM DZ BR SCT049 21/20 A3010 RMK AO2 DZB45 SLP199 $
RODN 201616Z AUTO 06003KT 5SM BR SCT011 BKN110 21/20 A3011 RMK AO2 SLP202 $
RODN 201556Z AUTO 04005KT 7SM BKN012 21/21 A3011 RMK AO2 SLP202 T02140205 $
RODN 201536Z AUTO 04003KT 7SM BKN013 BKN110 21/21 A3012 RMK AO2 CIG 013V110 SLP206 $
RODN 201526Z AUTO 04004KT 5SM BR FEW015 SCT110 21/20 A3012 RMK AO2 SLP206 $
RODN 201516Z AUTO 05003KT 4SM BR SCT110 21/20 A3012 RMK AO2 SLP206 $
RODN 201456Z AUTO 00000KT 9SM FEW120 21/20 A3013 RMK AO2 DZE1355DZB00E05RAB05E19DZB19E22 SLP209 P0001 60001 T02060197 402560194 57008 $
RODN 201432Z AUTO 07005KT 9SM FEW005 21/20 A3012 RMK AO2 DZE1355DZB00E05RAB05E19DZB19E22 SLP206 $
RODN 201422Z AUTO 06005KT 4SM BR FEW006 21/20 A3013 RMK AO2 DZE1355DZB00E05RAB05E19DZB19E22 SLP209 $
RODN 201420Z AUTO 05005KT 3SM -DZ BR FEW006 21/20 A3013 RMK AO2 DZE1355DZB00E05RAB05E19DZB19 SLP209 $
RODN 201400Z AUTO 06003KT 10SM -DZ SCT015 21/20 A3013 RMK AO2 DZE1355DZB00 SLP209 $
RODN 201357Z AUTO 06004KT 10SM SCT015 21/20 A3013 RMK AO2 DZE55 SLP209 $
RODN 201356Z AUTO 06004KT 10SM -DZ BKN015 21/20 A3013 RMK AO2 DZB43 SLP209 P0000 T02100201 $
RODN 201343Z AUTO 05005KT 10SM -DZ BKN016 21/20 A3013 RMK AO2 DZB43 SLP209 $
RODN 201326Z AUTO 06006KT 10SM BKN016 21/20 A3013 RMK AO2 BKN V SCT SLP209 $
RODN 201256Z AUTO 07005KT 10SM SCT017 21/20 A3014 RMK AO2 DZB30E43 SLP213 P0000 T02100201 $
RODN 201243Z AUTO 05007KT 8SM BKN017 BKN080 21/20 A3014 RMK AO2 DZB30E43 CIG 017V080 BKN017 V SCT SLP213 $
RODN 201240Z AUTO 05007KT 8SM -DZ BKN017 BKN080 21/20 A3014 RMK AO2 DZB30 CIG 017V080 BKN017 V SCT SLP213 $
RODN 201230Z AUTO 06006KT 7SM -DZ SCT017 SCT080 21/20 A3013 RMK AO2 DZB30 SLP209 $
RODN 201156Z AUTO 04003KT 8SM CLR 21/20 A3015 RMK AO2 DZE1057 SLP216 P0000 60013 T02080198 10239 20208 52009 $
RODN 201057Z AUTO 05004KT 7SM FEW015 21/20 A3014 RMK AO2 DZE57 SLP213 $
RODN 201056Z AUTO 05004KT 8SM -DZ SCT015 21/20 A3014 RMK AO2 DZB23E26RAB26E38DZB38E41DZB46 SLP213 P0000 T02080198 $
RODN 201046Z AUTO 06005KT 5SM -DZ BR SCT015 SCT055 21/20 A3014 RMK AO2 DZB23E26RAB26E38DZB38E41DZB46 SLP213 $
RODN 201041Z AUTO 06005KT 3SM BR SCT015 BKN033 21/20 A3014 RMK AO2 DZB23E26RAB26E38DZB38E41 SLP213 $
RODN 201023Z AUTO 06005KT 10SM -DZ SCT033 SCT090 21/20 A3014 RMK AO2 DZB23 SLP213 $
RODN 200956Z AUTO 08004KT 10SM FEW023 SCT090 21/20 A3013 RMK AO2 RAE00DZB00E08DZB10E26 SLP210 P0001 T02090197 $
RODN 200926Z AUTO 08004KT 8SM CLR 21/20 A3012 RMK AO2 RAE00DZB00E08DZB10E26 SLP206 $
RODN 200910Z AUTO 06006KT 7SM -DZ SCT009 SCT021 21/20 A3012 RMK AO2 RAE00DZB00E08DZB10 SLP206 $
RODN 200909Z AUTO 06007KT 6SM BR SCT009 BKN021 21/20 A3012 RMK AO2 RAE00DZB00E08 CIG 009V021 CIG 018 RWY05 SLP206 $
RODN 200908Z AUTO 06007KT 5SM -DZ BR BKN009 BKN021 21/20 A3012 RMK AO2 RAE00DZB00 SLP206 $
RODN 200858Z AUTO 05006KT 1 1/8SM -RA BR BKN009 21/20 A3012 RMK AO2 VIS 7/8V1 5/8 CIG 006V011 SLP206 $
RODN 200856Z AUTO 05006KT 1SM R23/4500VP6000FT -RA BR BKN009 21/20 A3012 RMK AO2 VIS 7/8V2 DZB24E25RAB25 CIG 006V011 BKN V SCT SLP206 P0005 60012 T02090195 55002 $
RODN 200852Z AUTO 05007KT 1SM R23/4500VP6000FT -RA BR BKN006 21/20 A3012 RMK AO2 VIS 1V2 3/4 DZB24E25RAB25 CIG 006V011 SLP206 $
RODN 200844Z AUTO 06006KT 2 1/4SM +RA BR FEW007 SCT011 SCT031 21/20 A3012 RMK AO2 VIS 2 1/4V8 DZB24E25RAB25 SLP206 $
RODN 200824Z AUTO 06006KT 10SM -DZ FEW007 SCT011 BKN031 22/20 A3012 RMK AO2 DZB24 SLP206 $
RODN 200816Z AUTO 06008KT 10SM BKN008 22/20 A3012 RMK AO2 CIG 008V010 SLP206 $
RODN 200806Z AUTO 05007KT 10SM BKN010 BKN020 22/20 A3012 RMK AO2 CIG 008V010 SLP206 $
RODN 200756Z AUTO 06007KT 10SM BKN008 BKN020 22/20 A3012 RMK AO2 RAE04DZB04E12DZB16E34 CIG 008V021 SLP206 P0000 T02190202 $
RODN 200734Z AUTO 06009KT 8SM FEW007 SCT011 BKN020 22/21 A3012 RMK AO2 RAE04DZB04E12DZB16E34 BKN V SCT CIG 019 RWY05 SLP206 $
RODN 200726Z AUTO 06006KT 10SM -DZ FEW011 SCT020 22/21 A3011 RMK AO2 RAE04DZB04E12DZB16 SLP203 $
RODN 200716Z AUTO 07007KT 9SM -DZ BKN018 22/20 A3012 RMK AO2 RAE04DZB04E12DZB16 SLP206 $
RODN 200712Z AUTO 07007KT 8SM BKN018 22/20 A3012 RMK AO2 RAE04DZB04E12 SLP206 $
RODN 200706Z AUTO 07006KT 5SM -DZ BR BKN016 22/20 A3012 RMK AO2 RAE04DZB04 BKN V OVC SLP206 $
RODN 200656Z 07006KT 1 7/8SM -RA BR OVC016 22/20 A3012 RMK AO2A TWR VIS 2 VIS 1 1/8V1 7/8 DZB09E10RAB10 SLP206 P0007 T02180199 $
RODN 200647Z 05006KT 1 1/4SM R23/6000FT -RA BR OVC014 22/20 A3013 RMK AO2A TWR VIS 2 VIS 1 1/8V1 5/8 DZB09E10RAB10 SLP209 $
RODN 200646Z 05006KT 1 1/8SM R23/5500FT RA BR OVC014 22/20 A3013 RMK AO2A TWR VIS 2 1/2 VIS 1 1/8V1 3/4 DZB09E10RAB10 SLP209 $
RODN 200645Z 06006KT 1 1/8SM R23/5000FT RA OVC014 22/19 A3012 RMK AO2A TWR VIS 2 1/2 VIS 1 1/8V1 3/4 DZB09E10RAB10 SLP206 $
RODN 200643Z 06006KT 1 1/8SM R23/5500FT RA OVC014 22/20 A3013 RMK AO2A TWR VIS 2 1/2 VIS 1 1/8V1 3/4 DZB09E10RAB10 SLP209 $
RODN 200639Z 06006KT 1 5/8SM RA OVC014 22/19 A3013 RMK AO2A TWR VIS 2 1/2 DZB09E10RAB10 CIG 012V018 OVC V BKN SLP209 $
RODN 200629Z 05005KT 1 1/4SM -RA SCT012 OVC018 22/19 A3013 RMK AO2A TWR VIS 12 1/2 VIS 1 1/4V5 DZB09E10RAB10 CIG 012V018 SLP209 $
RODN 200619Z AUTO 06005KT 5SM RA BKN012 BKN021 23/19 A3013 RMK AO2 DZB09E10RAB10 CIG 012V021 BKN012 V SCT SLP209 $
RODN 200609Z AUTO 05007KT 10SM -DZ FEW013 BKN021 23/20 A3013 RMK AO2 DZB09 CIG 020 RWY05 SLP209 $
RODN 200606Z AUTO 06007KT 10SM FEW013 BKN021 23/20 A3013 RMK AO2 CIG 020 RWY05 SLP209 $
RODN 200556Z AUTO 05007KT 10SM FEW013 SCT021 24/20 A3013 RMK AO2 DZB03E12 SLP209 P0000 60000 T02400199 10256 20210 57019 $
RODN 200522Z AUTO 06006KT 10SM FEW014 SCT021 SCT028 BKN190 23/20 A3013 RMK AO2 DZB03E12 SLP209 $
RODN 200512Z AUTO 07007KT 10SM SCT015 SCT021 BKN028 23/20 A3013 RMK AO2 DZB03E12 CIG 022V028 CIG 015 RWY05 SLP209 $
RODN 200503Z AUTO 07008KT 10SM -DZ SCT015 BKN022 23/20 A3014 RMK AO2 DZB03 CIG 015V022 CIG 015 RWY05 SLP213 $
RODN 200456Z AUTO 08007KT 10SM BKN017 BKN022 23/19 A3014 RMK AO2 CIG 014 RWY05 SLP213 T02330194 $
RODN 200436Z AUTO 06007KT 10SM BKN019 24/20 A3015 RMK AO2 CIG 014 RWY05 SLP216 $
RODN 200426Z AUTO 05008KT 10SM SCT015 BKN022 24/20 A3015 RMK AO2 CIG 015V022 CIG 014 RWY05 SLP216 $
RODN 200416Z AUTO 06006KT 10SM BKN014 BKN022 24/20 A3016 RMK AO2 CIG 014V024 BKN014 V SCT SLP219 $
RODN 200406Z AUTO 06007KT 10SM SCT014 BKN024 24/20 A3016 RMK AO2 CIG 015V024 CIG 018 RWY05 SLP219 $
RODN 200356Z AUTO 07007KT 10SM BKN015 25/20 A3016 RMK AO2 SLP219 T02460203 $
RODN 200256Z AUTO 06007KT 9SM SCT013 BKN160 BKN190 25/21 A3019 RMK AO2 SLP229 T02500207 58002 $
RODN 200226Z AUTO 06006KT 10SM BKN013 24/21 A3019 RMK AO2 SLP230 PWINO $
RODN 200216Z AUTO 07005KT 10SM SCT013 24/20 A3020 RMK AO2 SLP233 PWINO $
RODN 200156Z AUTO 05005KT 10SM SCT017 SCT180 24/21 A3020 RMK AO2 SLP233 T02410208 PWINO $
RODN 200056Z AUTO 06004KT 10SM FEW007 SCT013 23/21 A3019 RMK AO2 SLP230 T02250209 PWINO $
RODN 200016Z AUTO 34003KT 10SM BKN013 22/20 A3019 RMK AO2 BKN V SCT SLP230 $
RODN 192356Z AUTO 02003KT 10SM SCT013 SCT036 21/20 A3019 RMK AO2 SLP230 60002 70058 T02090202 10209 20194 52020 $
RODN 192346Z AUTO 02003KT 10SM SCT014 SCT036 21/20 A3018 RMK AO2 SLP226 $
RODN 192256Z AUTO 00000KT 10SM BKN013 20/19 A3017 RMK AO2 CIG 012 RWY05 SLP223 T02020194 $
RODN 192246Z AUTO 00000KT 9SM OVC014 20/19 A3017 RMK AO2 CIG 013 RWY05 SLP223 $
RODN 192236Z AUTO 00000KT 6SM BR BKN015 20/19 A3017 RMK AO2 CIG 013 RWY05 SLP223 $
RODN 192206Z AUTO 07003KT 6SM BR BKN014 20/19 A3015 RMK AO2 BKN V OVC CIG 012 RWY05 SLP216 $
RODN 192156Z AUTO 06004KT 5SM BR OVC015 20/19 A3015 RMK AO2 CIG 013 RWY05 SLP216 T01970187 $
RODN 192126Z AUTO 00000KT 7SM OVC015 20/19 A3014 RMK AO2 CIG 013 RWY05 SLP213 $
RODN 192006Z AUTO 04003KT 10SM BKN015 20/19 A3013 RMK AO2 SLP209 $
RODN 191956Z AUTO 10003KT 10SM SCT016 20/19 A3013 RMK AO2 SLP209 T01990189 $
RODN 191856Z AUTO 00000KT 9SM CLR 20/18 A3014 RMK AO2 RAE03DZB03E06RAB06E24DZB24E25RAB31E45DZB45E54 SLP213 P0001 T01950183 $
RODN 191825Z AUTO 00000KT 8SM CLR 20/18 A3015 RMK AO2 RAE03DZB03E06RAB06E24DZB24E25 SLP216 $
RODN 191756Z AUTO 00000KT 8SM -RA FEW007 20/18 A3015 RMK AO2 DZB18E19RAB19E30DZB30E41RAB41 SLP216 P0002 60002 T01950181 10208 20195 58007 $
RODN 191724Z AUTO 00000KT 9SM -RA FEW006 20/18 A3016 RMK AO2 DZB18E19RAB19 SLP220 $
RODN 191656Z AUTO 00000KT 10SM CLR 20/18 A3017 RMK AO2 DZE04DZB39E52 SLP223 P0000 T01980184 $
RODN 191604Z AUTO 00000KT 10SM CLR 20/19 A3017 RMK AO2 DZE04 SLP223 $
RODN 191556Z AUTO 00000KT 10SM -DZ CLR 20/19 A3018 RMK AO2 DZB50 SLP226 P0000 T02010187 $
RODN 191456Z AUTO 00000KT 10SM CLR 20/19 A3017 RMK AO2 SLP222 60000 T02000186 402730199 50008 $
RODN 191356Z AUTO 06003KT 10SM CLR 20/19 A3017 RMK AO2 DZB1259E15DZB25E54 SLP223 P0000 T02030186 $
RODN 191315Z AUTO 00000KT 10SM CLR 21/19 A3017 RMK AO2 DZB1259E15 SLP223 $
RODN 191259Z AUTO 00000KT 10SM -DZ FEW043 FEW100 21/19 A3017 RMK AO2 DZB59 SLP223 $
RODN 191256Z AUTO 00000KT 10SM FEW100 21/19 A3017 RMK AO2 SLP223 T02080193 $
RODN 191156Z AUTO 00000KT 10SM BKN100 21/19 A3015 RMK AO2 SLP216 60012 T02080191 10223 20205 52017 $
RODN 191056Z AUTO 32003KT 10SM FEW020 FEW100 21/20 A3014 RMK AO2 SLP213 T02140198 $
RODN 190956Z AUTO 00000KT 10SM CLR 22/20 A3012 RMK AO2 SLP206 T02170201 $
RODN 190926Z AUTO 30005KT 10SM SCT010 22/20 A3011 RMK AO2 SLP202 $
RODN 190916Z AUTO 28006KT 10SM SCT010 BKN015 BKN024 22/21 A3011 RMK AO2 CIG 010V015 CIG 013 RWY05 SLP202 $
RODN 190906Z AUTO 28004KT 10SM BKN010 BKN015 22/21 A3010 RMK AO2 CIG 010V017 BKN010 V SCT SLP199 $
RODN 190856Z AUTO 23005KT 10SM BKN015 22/21 A3010 RMK AO2 SLP199 60012 T02200206 53008 $
RODN 190846Z AUTO 22007KT 10SM SCT017 BKN023 22/21 A3009 RMK AO2 CIG 016 RWY05 SLP196 $
RODN 190756Z AUTO 23009KT 10SM CLR 22/21 A3008 RMK AO2 RAE00DZB00E03 SLP192 P0000 T02230211 $
RODN 190703Z 24010KT 10SM BKN070 22/21 A3007 RMK AO2A RAE00DZB00E03 SLP189 $
RODN 190656Z 24009KT 10SM -RA FEW008 BKN070 22/21 A3007 RMK AO2A RAE47DZB47E50RAB50 SLP189 P0012 T02180208 $
RODN 190648Z 23009KT 9SM -DZ BKN012 22/21 A3007 RMK AO2A RAE47DZB47 SLP189 $
RODN 190638Z 24009KT 7SM -RA BR BKN017 21/20 A3007 RMK AO2A CIG 013 RWY05 SLP189 $
RODN 190630Z 26009KT 2 1/4SM RA BR OVC019 21/20 A3007 RMK AO2A SLP189 $
RODN 190606Z 24012KT 3SM +RA BR OVC013 21/20 A3007 RMK AO2A CIG 008V013 SLP189 $
RODN 190556Z 25011KT 4SM RA BR SCT008 BKN015 OVC060 21/20 A3008 RMK AO2A PK WND 26028/05 DZB03E08RAB08 SLP192 P0007 60043 T02120202 10273 20205 58006 $
RODN 190553Z 25010KT 4SM RA BR SCT008 BKN015 OVC060 21/20 A3008 RMK AO2A DZB03E08RAB08 SLP192 $
RODN 190543Z AUTO 24011KT 2 3/4SM RA BR BKN008 21/20 A3008 RMK AO2 DZB03E08RAB08 CIG 001 RWY05 SLP192 $
RODN 190539Z 26012KT 3SM RA BR SCT008 BKN020 OVC070 21/20 A3008 RMK AO2A DZB03E08RAB08 SLP192 $
RODN 190523Z 25012KT 4SM RA BR FEW009 OVC070 21/20 A3008 RMK AO2A DZB03E08RAB08 SLP192 $
RODN 190503Z COR AUTO 26018G26KT 10SM -DZ FEW010 BKN070 22/20 A3008 RMK AO2 DZB03 SLP192 $ COR 0517
RODN 190456Z 23016KT 10SM FEW017 BKN070 22/20 A3008 RMK AO2A PK WND 20033/02 SLP192 P0008 T02150203 $
RODN 190452Z 23017KT 10SM FEW017 BKN065 21/20 A3007 RMK AO2A SLP189 $
RODN 190449Z 22016KT 9SM -RA SCT017 BKN065 21/20 A3008 RMK AO2A SLP192 $
RODN 190441Z AUTO 19014KT 4SM -RA BR SCT016 21/20 A3007 RMK AO2 SLP189 $
RODN 190431Z AUTO 22017G24KT 2 3/4SM -RA BR SCT015 21/19 A3008 RMK AO2 VIS 2 3/4V5 SLP192 $
RODN 190421Z AUTO 21017G29KT 4SM -RA BR BKN013 21/19 A3009 RMK AO2 SLP196 $
RODN 190411Z AUTO 20022G33KT 1 3/8SM -RA BKN012 BKN024 21/18 A3009 RMK AO2 CIG 001 RWY05 SLP196 $
RODN 190401Z AUTO 20018G28KT 1 1/4SM -RA BKN012 BKN024 22/19 A3010 RMK AO2 VIS 3/4V6 CIG 012V200 BKN012 V SCT SLP199 $
RODN 190358Z AUTO 21024G38KT 3/4SM R23/0800VP6000FT RA SCT012 BKN024 23/19 A3010 RMK AO2 VIS 3/4V9 CIG 024V200 BKN V SCT CIG 021 RWY05 SLP199 $
RODN 190356Z AUTO 21022G38KT 2 3/4SM RA SCT008 BKN024 BKN200 24/19 A3011 RMK AO2 PK WND 26038/45 VIS 2 3/4V10 VIS 1 RWY05 RAB46 CIG 024V200 BKN024 V SCT CIG 022 RWY05 SLP202 P0028 T02350186 $
RODN 190347Z AUTO 22025G33KT 10SM +RA FEW025 SCT033 SCT200 26/20 A3010 RMK AO2 WSHFT 38 RAB46 SLP199 $
RODN 190346Z AUTO 21023G30KT 10SM +RA FEW025 FEW033 SCT200 26/20 A3010 RMK AO2 RAB46 SLP199 $
RODN 190256Z AUTO 18023G28KT 10SM FEW025 FEW120 SCT200 27/21 A3010 RMK AO2 PK WND 18033/09 SLP199 T02700210 50000 $
RODN 190156Z AUTO 18018G30KT 10SM FEW025 26/21 A3011 RMK AO2 PK WND 18030/47 SLP202 T02620209 $
RODN 190137Z 17016KT 10SM CLR 26/21 A3011 RMK SLP202 $
RODN 190056Z AUTO 17017G28KT 10SM FEW023 26/21 A3011 RMK AO2 PK WND 16028/45 SLP202 T02560208 $
RODN 182356Z AUTO 16016KT 10SM CLR 25/21 A3009 RMK AO2 SLP195 70016 T02460205 10246 20220 50015 $
RODN 182256Z AUTO 17011KT 10SM FEW065 23/20 A3010 RMK AO2 SLP199 T02280201 $
RODN 182156Z AUTO 16011G17KT 10SM BKN065 BKN095 23/20 A3008 RMK AO2 SLP192 T02250198 $
RODN 182056Z AUTO 15011G16KT 10SM BKN060 22/20 A3005 RMK AO2 SLP182 T02240199 55005 $
RODN 181956Z AUTO 15009KT 10SM CLR 22/20 A3004 RMK AO2 SLP179 T02210196 $
RODN 181856Z AUTO 15012KT 10SM CLR 22/19 A3005 RMK AO2 SLP182 T02210194 $
RODN 181756Z AUTO 15012KT 10SM FEW050 22/20 A3007 RMK AO2 SLP189 60011 T02220197 10222 20205 57013 $
RODN 181656Z AUTO 15013KT 10SM CLR 22/20 A3008 RMK AO2 SLP192 T02190196 $
RODN 181556Z AUTO 16011KT 10SM FEW014 FEW019 BKN095 22/20 A3010 RMK AO2 RAB25E35DZB35E37 SLP199 P0001 T02200203 $
RODN 181547Z AUTO 17010G16KT 10SM FEW014 SCT022 22/20 A3010 RMK AO2 RAB25E35DZB35E37 SLP199 $
RODN 181537Z AUTO 16010KT 10SM FEW014 BKN021 22/20 A3009 RMK AO2 RAB25E35DZB35E37 SLP196 $
RODN 181535Z AUTO 16008KT 10SM -DZ FEW001 SCT015 BKN023 22/20 A3009 RMK AO2 RAB25E35DZB35 BKN V SCT SLP196 $
RODN 181525Z AUTO 16010KT 10SM +RA FEW037 22/20 A3010 RMK AO2 RAB25 SLP199 $
RODN 181456Z AUTO 15013KT 10SM FEW019 BKN044 22/20 A3011 RMK AO2 RAE20DZB20E22DZB36E46 SLP202 P0002 60010 T02190200 402430141 58002 $
RODN 181446Z AUTO 15011KT 10SM FEW017 SCT045 BKN100 22/20 A3010 RMK AO2 RAE20DZB20E22DZB36E46 SLP199 $
RODN 181436Z AUTO 15011G18KT 10SM -DZ FEW013 SCT027 SCT047 BKN100 22/20 A3011 RMK AO2 RAE20DZB20E22DZB36 SLP202 $
RODN 181432Z AUTO 15011G20KT 10SM FEW009 FEW016 SCT029 SCT047 BKN100 22/20 A3011 RMK AO2 RAE20DZB20E22 SLP202 $
RODN 181422Z AUTO 15013G20KT 10SM FEW001 SCT010 SCT017 BKN027 BKN100 21/20 A3011 RMK AO2 RAE20DZB20E22 CIG 010V028 BKN027 V OVC CIG 011 RWY23 SLP202 $
RODN 181416Z AUTO 14009G16KT 10SM -RA FEW001 SCT010 BKN018 BKN028 21/20 A3011 RMK AO2 CIG 010V018 CIG 011 RWY23 SLP202 $
RODN 181406Z AUTO 18007KT 10SM RA FEW001 BKN010 OVC027 21/20 A3011 RMK AO2 CIG 010V027 BKN V SCT SLP202 $
RODN 181356Z AUTO 15009G15KT 7SM -RA FEW001 SCT010 BKN027 OVC041 21/20 A3011 RMK AO2 DZB23E30RAB30 CIG 018 RWY23 SLP202 P0008 T02100195 $
RODN 181353Z AUTO 15011G15KT 7SM RA BR FEW001 SCT010 BKN029 OVC041 21/19 A3011 RMK AO2 DZB23E30RAB30 BKN V OVC CIG 018 RWY23 SLP202 $
RODN 181343Z AUTO 19013G20KT 7SM RA FEW001 FEW013 SCT020 BKN032 OVC042 21/19 A3011 RMK AO2 DZB23E30RAB30 SLP202 $
RODN 181323Z AUTO 15011G17KT 10SM -DZ SCT014 BKN024 BKN028 BKN034 22/20 A3011 RMK AO2 DZB23 CIG 021V027 CIG 014 RWY23 SLP202 $
RODN 181316Z AUTO 14011KT 10SM SCT014 BKN021 BKN027 22/20 A3011 RMK AO2 CIG 021V027 BKN021 V SCT CIG 014 RWY23 SLP202 $
RODN 181306Z AUTO 14013G18KT 10SM SCT014 BKN027 22/20 A3011 RMK AO2 CIG 015V027 CIG 014 RWY23 SLP202 $
RODN 181256Z AUTO 14011G20KT 10SM BKN015 BKN027 22/20 A3012 RMK AO2 DZB43E44RAB44E54 SLP206 P0000 T02160197 $
RODN 181254Z AUTO 14010G20KT 10SM BKN015 BKN024 BKN029 22/20 A3012 RMK AO2 DZB43E44RAB44E54 SLP206 $
RODN 181243Z AUTO 14010KT 10SM -DZ BKN015 BKN022 BKN027 21/20 A3012 RMK AO2 DZB43 CIG 015V022 CIG 013 RWY23 SLP206 $
RODN 181226Z AUTO 13011G17KT 10SM FEW009 BKN022 BKN055 BKN065 21/20 A3011 RMK AO2 CIG 009 RWY23 SLP203 $
RODN 181216Z AUTO 12011KT 10SM FEW000 BKN008 BKN026 BKN040 OVC055 21/20 A3011 RMK AO2 CIG 007V025 BKN008 V SCT SLP203 $
RODN 181156Z AUTO 12013G21KT 10SM BKN007 OVC027 21/19 A3011 RMK AO2 RAE15DZB15E52 SLP203 P0003 60005 T02050193 10243 20200 52007 $
RODN 181152Z AUTO 11015G21KT 10SM FEW002 BKN007 OVC025 21/19 A3011 RMK AO2 RAE15DZB15E52 SLP203 $
RODN 181146Z AUTO 12015G19KT 8SM -DZ FEW002 BKN007 OVC025 20/19 A3011 RMK AO2 RAE15DZB15 SLP203 $
RODN 181136Z AUTO 12013G20KT 8SM -DZ FEW002 BKN006 OVC025 20/19 A3011 RMK AO2 RAE15DZB15 CIG 002V006 BKN V OVC SLP203 $
RODN 181116Z AUTO 12016G24KT 8SM -DZ BKN002 OVC006 20/19 A3010 RMK AO2 RAE15DZB15 CIG 002V006 BKN V SCT SLP200 $
RODN 181106Z AUTO 12010KT 3SM -RA BR BKN002 OVC008 20/19 A3010 RMK AO2 VIS 2 1/2 RWY23 BKN V OVC SLP200 $
RODN 181056Z AUTO 13012KT 4SM -RA BR BKN002 OVC006 20/19 A3010 RMK AO2 DZE01RAB01E23DZB23E26DZB28E55RAB55 SLP200 P0002 T02010187 $
RODN 181038Z AUTO 11013G19KT 4SM -DZ BR BKN002 OVC006 20/19 A3009 RMK AO2 DZE01RAB01E23DZB23E26DZB28 SLP196 $
RODN 181028Z AUTO 10013KT 5SM -DZ BR BKN002 BKN006 20/18 A3009 RMK AO2 DZE01RAB01E23DZB23E26DZB28 SLP196 $
RODN 181027Z AUTO 10014G20KT 5SM BR BKN002 BKN006 20/18 A3009 RMK AO2 DZE01RAB01E23DZB23E26 SLP196 $
RODN 181026Z AUTO 10014G20KT 5SM -DZ BR BKN002 BKN006 20/18 A3009 RMK AO2 DZE01RAB01E23DZB23 SLP196 $
RODN 181016Z AUTO 12017G21KT 3SM -RA BR BKN001 OVC021 20/19 A3009 RMK AO2 VIS 1 5/8 RWY23 DZE01RAB01 CIG 001V021 BKN V SCT SLP196 $
RODN 181006Z AUTO 12013G22KT 3SM -RA SCT001 BKN017 OVC021 21/18 A3009 RMK AO2 VIS 2 1/2 RWY23 DZE01RAB01 CIG 017V023 BKN V SCT SLP196 $
RODN 180956Z AUTO 11014KT 5SM -DZ SCT018 OVC023 21/18 A3009 RMK AO2 DZB49 CIG 018V023 CIG 018 RWY23 SLP196 P0000 T02110183 $
RODN 180949Z AUTO 11013KT 9SM -DZ BKN018 OVC023 21/18 A3010 RMK AO2 DZB49 SLP200 $
RODN 180856Z AUTO 11013G19KT 10SM BKN019 OVC026 22/18 A3009 RMK AO2 SLP196 T02150177 55004 $
RODN 180836Z AUTO 11011G19KT 10SM BKN018 BKN026 22/18 A3009 RMK AO2 SLP196 $
RODN 180756Z AUTO 11013G18KT 10SM BKN024 BKN029 22/17 A3009 RMK AO2 SLP196 T02180169 $
RODN 180746Z AUTO 10018G22KT 10SM BKN026 BKN036 22/17 A3008 RMK AO2 CIG 024V035 SLP193 $
RODN 180726Z AUTO 10016G19KT 10SM SCT025 BKN034 22/17 A3008 RMK AO2 SLP193 $
RODN 180716Z AUTO 10017KT 10SM BKN024 OVC033 22/16 A3009 RMK AO2 CIG 024V033 BKN V SCT SLP196 $
RODN 180656Z AUTO 10013G22KT 10SM SCT024 BKN031 BKN050 23/16 A3009 RMK AO2 SLP196 T02290162 $